TimePDT,TemperatureF,Dew PointF,Humidity,Sea Level PressureIn,VisibilityMPH,Wind Direction,Wind SpeedMPH,Gust SpeedMPH,PrecipitationIn,Events,Conditions,WindDirDegrees,DateUTC
12:27 AM,55.4,53.6,94,29.87,2.0,South,5.8,-,N/A,,Partly Cloudy,180,2013-08-19 07:27:00
12:29 AM,55.4,53.6,94,29.87,1.2,South,6.9,-,N/A,,Scattered Clouds,180,2013-08-19 07:29:00
12:33 AM,55.4,53.6,94,29.86,0.8,SSW,6.9,-,N/A,,Mist,200,2013-08-19 07:33:00
12:48 AM,55.4,55.4,100,29.87,0.5,SSW,4.6,-,N/A,Fog,Fog,210,2013-08-19 07:48:00
12:53 AM,55.9,55.0,97,29.87,0.5,SW,4.6,-,N/A,Fog,Fog,220,2013-08-19 07:53:00
1:53 AM,55.9,55.0,97,29.86,0.5,SW,3.5,-,N/A,Fog,Fog,230,2013-08-19 08:53:00
2:44 AM,55.4,55.4,100,29.87,1.0,Calm,Calm,-,N/A,,Mist,0,2013-08-19 09:44:00
2:53 AM,55.0,54.0,96,29.87,1.5,Calm,Calm,-,N/A,,Overcast,0,2013-08-19 09:53:00
3:00 AM,55.4,55.4,100,29.87,0.8,Calm,Calm,-,N/A,,Mist,0,2013-08-19 10:00:00
3:10 AM,55.4,53.6,94,29.87,1.0,Calm,Calm,-,N/A,,Mist,0,2013-08-19 10:10:00
3:34 AM,55.4,53.6,94,29.87,2.0,WSW,3.5,-,N/A,,Overcast,240,2013-08-19 10:34:00
3:43 AM,55.4,53.6,94,29.87,7.0,WSW,4.6,-,N/A,,Overcast,250,2013-08-19 10:43:00
3:53 AM,55.0,54.0,96,29.87,3.0,Calm,Calm,-,N/A,,Overcast,0,2013-08-19 10:53:00
4:02 AM,55.4,53.6,94,29.87,2.5,West,4.6,-,N/A,,Overcast,280,2013-08-19 11:02:00
4:10 AM,55.4,53.6,94,29.88,8.0,West,3.5,-,N/A,,Overcast,260,2013-08-19 11:10:00
4:53 AM,55.0,54.0,96,29.88,10.0,WSW,4.6,-,N/A,,Overcast,250,2013-08-19 11:53:00
5:53 AM,55.9,54.0,93,29.88,10.0,WSW,3.5,-,N/A,,Overcast,240,2013-08-19 12:53:00
6:53 AM,57.0,54.0,89,29.91,10.0,Calm,Calm,-,N/A,,Overcast,0,2013-08-19 13:53:00
7:53 AM,57.9,54.0,87,29.92,10.0,West,4.6,-,N/A,,Overcast,260,2013-08-19 14:53:00
8:00 AM,57.2,53.6,88,29.92,10.0,WSW,4.6,-,N/A,,Overcast,250,2013-08-19 15:00:00
8:30 AM,62.6,53.6,72,29.92,10.0,Calm,Calm,-,N/A,,Scattered Clouds,0,2013-08-19 15:30:00
8:53 AM,62.1,55.0,78,29.92,10.0,SSE,3.5,-,N/A,,Clear,150,2013-08-19 15:53:00
9:53 AM,69.1,55.9,63,29.92,10.0,Calm,Calm,-,N/A,,Clear,0,2013-08-19 16:53:00
10:53 AM,68.0,55.0,63,29.92,10.0,SW,6.9,-,N/A,,Clear,230,2013-08-19 17:53:00
11:53 AM,69.1,55.0,61,29.92,10.0,West,8.1,-,N/A,,Clear,260,2013-08-19 18:53:00
12:53 PM,70.0,54.0,57,29.91,10.0,WSW,13.8,-,N/A,,Clear,240,2013-08-19 19:53:00
1:53 PM,66.9,53.1,61,29.92,10.0,WSW,12.7,-,N/A,,Clear,240,2013-08-19 20:53:00
2:53 PM,66.0,54.0,65,29.93,10.0,SW,11.5,-,N/A,,Clear,230,2013-08-19 21:53:00
3:53 PM,66.0,54.0,65,29.91,10.0,WSW,13.8,-,N/A,,Clear,240,2013-08-19 22:53:00
4:53 PM,66.9,55.0,66,29.90,10.0,SW,10.4,-,N/A,,Clear,230,2013-08-19 23:53:00
5:07 PM,62.6,55.4,77,29.90,10.0,WSW,11.5,-,N/A,,Scattered Clouds,240,2013-08-20 00:07:00
5:18 PM,62.6,55.4,77,29.90,10.0,WSW,12.7,17.3,N/A,,Mostly Cloudy,240,2013-08-20 00:18:00
5:53 PM,61.0,55.0,81,29.90,10.0,SW,10.4,-,N/A,,Overcast,230,2013-08-20 00:53:00
6:53 PM,60.1,55.0,83,29.91,10.0,WSW,6.9,-,N/A,,Overcast,240,2013-08-20 01:53:00
7:53 PM,59.0,55.0,87,29.91,10.0,WSW,5.8,-,N/A,,Overcast,250,2013-08-20 02:53:00
8:53 PM,59.0,55.0,87,29.93,10.0,SW,4.6,-,N/A,,Overcast,230,2013-08-20 03:53:00
9:53 PM,57.9,55.0,90,29.95,10.0,SW,4.6,-,N/A,,Overcast,230,2013-08-20 04:53:00
10:53 PM,59.0,55.0,87,29.94,10.0,WSW,3.5,-,N/A,,Overcast,250,2013-08-20 05:53:00
11:53 PM,59.0,55.0,87,29.91,10.0,Calm,Calm,-,N/A,,Overcast,0,2013-08-20 06:53:00